San Francisco, CA (94105)

6:54 PM PDT on August 22, 2014 (GMT -0700)
Financial District | Change Station
CLOSE
Current Station
Personal Weather Station
Location: San Francisco, CA
Elevation: 100 ft
Nearby Weather Stations

Elev 100 ft 37.79 °N, 122.40 °W | Updated 9 seconds ago

Mostly Cloudy
Mostly Cloudy
63.5 °F
Feels Like 63.5 °F
N
4.0
Wind Variable Wind from South
Gusts 4.0 mph

Today
High -- | Low -- °F
--% Chance of Precip.
Yesterday
High -- | Low -- °F
Precip. -- in
6:31 AM 7:52 PM
Waning Crescent, 6% visible
Pressure 29.92 in
Visibility 10.0 miles
Clouds Mostly Cloudy 1200 ft
Dew Point 51 °F
Humidity 63%
Rainfall 0.00 in
Snow Depth Not available.
UV 0.0 out of 12
Pollen 5.70 out of 12
PM2.5 Good
Flu Activity Not available.
METAR KOAK 230053Z 26015KT 10SM BKN012 19/14 A2992 RMK AO2 SLP131 T01890139

More Conditions Fewer Conditions

Pressure 29.92 in
Visibility 10.0 miles
Clouds Mostly Cloudy 1200 ft
Dew Point 51 °F
Humidity 63%
Rainfall 0.00 in
Snow Depth Not available.
UV 0.0 out of 12
Pollen 5.70 out of 12
PM2.5 Good
Flu Activity Not available.
METAR KOAK 230053Z 26015KT 10SM BKN012 19/14 A2992 RMK AO2 SLP131 T01890139

More Conditions Fewer Conditions

10-Day Weather Forecast

Almanac

Astronomy

Aug. 22, 2014 Rise Set
Actual Time 6:31 AM PDT 7:52 PM PDT
Civil Twilight 6:03 AM PDT 8:20 PM PDT
Nautical Twilight 5:30 AM PDT 8:53 PM PDT
Astronomical Twilight 4:56 AM PDT 9:27 PM PDT
Moon 3:59 AM PDT (8/22) 6:03 PM PDT (8/22)
Length of Visible Light 14h 16m
Length of Day
13h 21m
Tomorrow will be 2m 14s shorter.
Waning Crescent, 6% of the Moon is Illuminated
Today
Waning Crescent
Aug 25
New
Sep 2
First Quarter
Sep 8
Full
Sep 15
Last Quarter

Today's Extremes

State Highs State Lows

Community

WunderPhotos

Upload Photos

1,746,337 photos uploaded!

WunderBlogs® & News

Nearby

Air Quality

  Air Quality AQ Index Pollutant
Yesterday Good
OZONE
Yesterday Good
PM2.5
Current Good
PM2.5
Friday Good
PM2.5
Saturday Good
PM2.5
Sunday Moderate
PM2.5
Monday Moderate
PM2.5
Tuesday Moderate
PM2.5
Wednesday Moderate
PM2.5

Snow Depth

Station Depth Elevation
Echo Peak 0 in 7800 ft
CSS Lab 4 in 6900 ft
Leavitt Meadows 1 in 7200 ft
Summit Meadow 1 in 9122 ft
Adin Mountain 1 in 6200 ft

Earthquake Activity

City Distance Mag. Time & Date
Berkeley, California 9 miles 2.6 7:41 PM PDT
2014-08-16
King City, California 132 miles 2.7 10:26 PM PDT
2014-08-15
Minimum magnitude displayed is 2.5.

Coastal Water Temperatures

Place Temperature
San Francisco, CA 64.9 °F
Richmond, CA 66.0 °F
Port Chicago, CA 70.0 °F

Nearby Weather Stations